createdAt,value
2022-10-12T00:00:51.477Z,101196.69
2022-10-12T00:03:21.941Z,101194.47
2022-10-12T00:06:00.959Z,101198.28
2022-10-12T00:08:29.046Z,101197.59
2022-10-12T00:10:57.255Z,101197.13
2022-10-12T00:13:26.066Z,101188.56
2022-10-12T00:15:54.871Z,101187.94
2022-10-12T00:18:24.722Z,101185.09
2022-10-12T00:21:01.993Z,101183.00
2022-10-12T00:23:31.048Z,101185.25
2022-10-12T00:26:03.511Z,101174.66
2022-10-12T00:28:31.869Z,101177.81
2022-10-12T00:31:00.007Z,101180.81
2022-10-12T00:33:30.587Z,101177.59
2022-10-12T00:35:58.746Z,101174.44
2022-10-12T00:38:26.804Z,101169.34
2022-10-12T00:40:54.864Z,101179.84
2022-10-12T00:43:34.287Z,101168.75
2022-10-12T00:46:05.730Z,101166.03
2022-10-12T00:48:35.876Z,101167.41
2022-10-12T00:51:04.922Z,101160.91
2022-10-12T00:53:37.901Z,101168.56
2022-10-12T00:56:12.272Z,101165.88
2022-10-12T00:58:40.605Z,101169.19
2022-10-12T01:01:10.575Z,101170.44
2022-10-12T01:03:40.751Z,101161.09
2022-10-12T01:06:10.000Z,101168.25
2022-10-12T01:08:39.299Z,101165.31
2022-10-12T01:11:07.644Z,101168.03
2022-10-12T01:13:35.819Z,101159.03
2022-10-12T01:16:12.646Z,101164.22
2022-10-12T01:18:47.427Z,101165.47
2022-10-12T01:21:22.617Z,101162.78
2022-10-12T01:24:18.884Z,101155.47
2022-10-12T01:27:03.648Z,101167.66
2022-10-12T01:30:07.419Z,101159.72
2022-10-12T01:32:47.419Z,101164.16
2022-10-12T01:35:22.206Z,101163.84
2022-10-12T01:37:58.159Z,101161.47
2022-10-12T01:40:32.693Z,101156.97
2022-10-12T01:43:01.182Z,101154.75
2022-10-12T01:45:29.504Z,101155.50
2022-10-12T01:47:59.177Z,101161.75
2022-10-12T01:50:36.191Z,101166.00
2022-10-12T01:53:15.241Z,101160.50
2022-10-12T01:55:50.649Z,101156.88
2022-10-12T01:58:49.471Z,101170.28
2022-10-12T02:01:27.094Z,101162.53
2022-10-12T02:04:04.167Z,101159.97
2022-10-12T02:06:39.919Z,101169.69
2022-10-12T02:09:14.730Z,101170.03
2022-10-12T02:11:46.153Z,101169.81
2022-10-12T02:14:17.925Z,101175.06
2022-10-12T02:16:51.132Z,101172.38
2022-10-12T02:19:24.594Z,101172.72
2022-10-12T02:21:55.361Z,101173.25
2022-10-12T02:24:25.008Z,101173.72
2022-10-12T02:26:55.873Z,101175.72
2022-10-12T02:29:28.077Z,101177.44
2022-10-12T02:32:03.531Z,101174.75
2022-10-12T02:34:37.432Z,101180.19
2022-10-12T02:37:10.285Z,101176.72
2022-10-12T02:39:44.833Z,101169.00
2022-10-12T02:42:19.062Z,101180.66
2022-10-12T02:44:48.932Z,101175.69
2022-10-12T02:47:18.287Z,101189.63
2022-10-12T02:49:49.359Z,101198.13
2022-10-12T02:52:17.721Z,101200.19
2022-10-12T02:54:45.850Z,101193.56
2022-10-12T02:57:13.961Z,101189.38
2022-10-12T02:59:42.222Z,101189.69
2022-10-12T03:02:10.962Z,101184.59
2022-10-12T03:04:39.292Z,101185.13
2022-10-12T03:07:08.734Z,101184.59
2022-10-12T03:09:36.947Z,101183.50
2022-10-12T03:12:05.567Z,101191.28
2022-10-12T03:14:35.198Z,101187.81
2022-10-12T03:17:03.334Z,101187.66
2022-10-12T03:19:31.609Z,101182.75
2022-10-12T03:21:59.720Z,101176.63
2022-10-12T03:24:29.213Z,101179.00
2022-10-12T03:26:57.335Z,101181.03
2022-10-12T03:29:25.647Z,101174.69
2022-10-12T03:31:53.709Z,101172.78
2022-10-12T03:34:21.797Z,101170.31
2022-10-12T03:36:49.874Z,101174.28
2022-10-12T03:39:18.005Z,101171.69
2022-10-12T03:41:47.454Z,101171.03
2022-10-12T03:44:15.575Z,101183.09
2022-10-12T03:46:43.688Z,101181.84
2022-10-12T03:49:11.795Z,101184.44
2022-10-12T03:51:39.890Z,101184.56
2022-10-12T03:54:07.948Z,101186.16
2022-10-12T03:56:36.078Z,101190.75
2022-10-12T03:59:05.912Z,101190.44
2022-10-12T04:01:34.078Z,101194.34
2022-10-12T04:04:02.212Z,101182.34
2022-10-12T04:06:30.430Z,101187.75
2022-10-12T04:08:58.602Z,101182.84
2022-10-12T04:11:26.777Z,101179.66
2022-10-12T04:13:54.879Z,101190.16
2022-10-12T04:16:26.197Z,101186.63
2022-10-12T04:18:56.963Z,101185.69
2022-10-12T04:21:26.256Z,101199.63
2022-10-12T04:23:54.576Z,101192.63
2022-10-12T04:26:22.663Z,101199.94
2022-10-12T04:28:50.817Z,101196.31
2022-10-12T04:31:19.029Z,101204.56
2022-10-12T04:33:48.596Z,101203.97
2022-10-12T04:36:16.850Z,101212.69
2022-10-12T04:38:45.284Z,101203.03
2022-10-12T04:41:13.645Z,101195.53
2022-10-12T04:43:41.820Z,101192.88
2022-10-12T04:46:10.179Z,101199.41
2022-10-12T04:48:38.407Z,101196.56
2022-10-12T04:51:07.915Z,101200.53
2022-10-12T04:53:36.075Z,101205.25
2022-10-12T04:56:04.877Z,101206.38
2022-10-12T04:58:33.775Z,101201.78
2022-10-12T05:01:02.478Z,101203.66
2022-10-12T05:03:30.631Z,101205.06
2022-10-12T05:05:58.725Z,101194.94
2022-10-12T05:08:28.224Z,101210.50
2022-10-12T05:10:58.507Z,101210.38
2022-10-12T05:13:27.040Z,101210.56
2022-10-12T05:15:55.161Z,101211.94
2022-10-12T05:18:23.377Z,101215.94
2022-10-12T05:20:56.668Z,101219.56
2022-10-12T05:23:25.507Z,101226.41
2022-10-12T05:25:55.789Z,101229.78
2022-10-12T05:28:24.383Z,101230.25
2022-10-12T05:30:52.934Z,101232.94
2022-10-12T05:33:21.723Z,101231.38
2022-10-12T05:35:54.674Z,101241.06
2022-10-12T05:38:24.383Z,101237.41
2022-10-12T05:40:57.700Z,101241.28
2022-10-12T05:43:29.980Z,101246.78
2022-10-12T05:45:58.404Z,101243.28
2022-10-12T05:48:26.548Z,101245.06
2022-10-12T05:50:55.446Z,101253.22
2022-10-12T05:53:24.244Z,101249.88
2022-10-12T05:55:56.652Z,101253.84
2022-10-12T05:58:25.782Z,101264.19
2022-10-12T06:00:55.724Z,101258.34
2022-10-12T06:03:26.197Z,101266.75
2022-10-12T06:05:54.748Z,101269.13
2022-10-12T06:08:22.884Z,101272.97
2022-10-12T06:10:53.844Z,101280.44
2022-10-12T06:13:22.051Z,101273.28
2022-10-12T06:15:51.098Z,101283.47
2022-10-12T06:18:20.934Z,101289.66
2022-10-12T06:20:49.521Z,101285.34
2022-10-12T06:23:17.698Z,101284.25
2022-10-12T06:25:47.367Z,101283.75
2022-10-12T06:28:15.892Z,101293.72
2022-10-12T06:30:44.629Z,101283.81
2022-10-12T06:33:12.918Z,101293.13
2022-10-12T06:35:42.357Z,101293.91
2022-10-12T06:38:10.465Z,101293.38
2022-10-12T06:40:38.660Z,101300.16
2022-10-12T06:43:06.819Z,101291.72
2022-10-12T06:45:35.449Z,101286.19
2022-10-12T06:48:04.105Z,101294.22
2022-10-12T06:50:32.294Z,101293.66
2022-10-12T06:53:01.764Z,101294.69
2022-10-12T06:55:30.887Z,101287.94
2022-10-12T06:57:59.014Z,101294.53
2022-10-12T07:00:27.088Z,101287.03
2022-10-12T07:02:55.317Z,101293.91
2022-10-12T07:05:24.909Z,101291.19
2022-10-12T07:07:53.065Z,101300.75
2022-10-12T07:10:23.084Z,101297.16
2022-10-12T07:12:51.161Z,101304.63
2022-10-12T07:15:19.507Z,101306.38
2022-10-12T07:17:47.595Z,101299.91
2022-10-12T07:20:15.953Z,101300.81
2022-10-12T07:22:44.617Z,101303.94
2022-10-12T07:25:12.845Z,101301.47
2022-10-12T07:27:42.376Z,101308.59
2022-10-12T07:30:12.313Z,101304.91
2022-10-12T07:32:40.607Z,101308.13
2022-10-12T07:35:09.446Z,101307.28
2022-10-12T07:37:37.800Z,101302.41
2022-10-12T07:40:07.114Z,101308.78
2022-10-12T07:42:35.262Z,101312.06
2022-10-12T07:45:05.351Z,101308.88
2022-10-12T07:47:33.523Z,101307.31
2022-10-12T07:50:01.677Z,101301.34
2022-10-12T07:52:32.401Z,101297.09
2022-10-12T07:55:00.494Z,101307.53
2022-10-12T07:57:28.750Z,101314.13
2022-10-12T07:59:56.858Z,101317.00
2022-10-12T08:02:26.587Z,101317.66
2022-10-12T08:04:54.685Z,101315.13
2022-10-12T08:07:22.787Z,101308.16
2022-10-12T08:09:51.062Z,101313.94
2022-10-12T08:12:19.458Z,101313.91
2022-10-12T08:14:47.615Z,101306.22
2022-10-12T08:17:16.028Z,101297.75
2022-10-12T08:19:45.549Z,101302.31
2022-10-12T08:22:13.641Z,101295.50
2022-10-12T08:24:42.295Z,101302.06
2022-10-12T08:27:10.923Z,101296.09
2022-10-12T08:29:41.001Z,101298.78
2022-10-12T08:32:09.321Z,101307.38
2022-10-12T08:34:37.856Z,101293.50
2022-10-12T08:37:07.891Z,101301.97
2022-10-12T08:39:36.365Z,101302.78
2022-10-12T08:42:17.326Z,101301.16
2022-10-12T08:45:05.050Z,101298.81
2022-10-12T08:47:38.997Z,101315.00
2022-10-12T08:50:10.982Z,101305.16
2022-10-12T08:52:46.568Z,101311.81
2022-10-12T08:55:34.142Z,101312.72
2022-10-12T08:58:02.874Z,101313.03
2022-10-12T09:00:35.198Z,101319.56
2022-10-12T09:03:14.919Z,101322.44
2022-10-12T09:05:48.691Z,101314.63
2022-10-12T09:08:33.242Z,101318.69
2022-10-12T09:11:14.764Z,101320.81
2022-10-12T09:13:48.654Z,101320.44
2022-10-12T09:16:24.026Z,101317.53
2022-10-12T09:18:57.904Z,101310.38
2022-10-12T09:21:29.201Z,101315.88
2022-10-12T09:23:59.335Z,101318.50
2022-10-12T09:26:34.799Z,101307.38
2022-10-12T09:29:05.772Z,101309.50
2022-10-12T09:31:44.950Z,101319.13
2022-10-12T09:34:18.205Z,101307.16
2022-10-12T09:36:47.459Z,101316.22
2022-10-12T09:39:23.508Z,101312.59
2022-10-12T09:41:55.224Z,101314.03
2022-10-12T09:44:29.437Z,101310.78
2022-10-12T09:47:00.760Z,101314.75
2022-10-12T09:49:41.943Z,101330.00
2022-10-12T09:52:10.855Z,101312.44
2022-10-12T09:54:47.703Z,101321.50
2022-10-12T09:57:20.324Z,101315.97
2022-10-12T09:59:49.125Z,101315.41
2022-10-12T10:02:19.376Z,101328.59
2022-10-12T10:04:49.238Z,101314.09
2022-10-12T10:07:27.478Z,101316.06
2022-10-12T10:10:15.995Z,101311.09
2022-10-12T10:12:55.837Z,101326.97
2022-10-12T10:15:28.118Z,101310.44
2022-10-12T10:17:59.764Z,101309.78
2022-10-12T10:20:32.006Z,101315.31
2022-10-12T10:23:01.379Z,101305.00
2022-10-12T10:25:31.366Z,101300.84
2022-10-12T10:28:24.168Z,101297.78
2022-10-12T10:31:02.886Z,101304.34
2022-10-12T10:33:31.651Z,101292.94
2022-10-12T10:36:04.291Z,101295.38
2022-10-12T10:38:35.224Z,101302.78
2022-10-12T10:41:07.924Z,101284.22
2022-10-12T10:43:36.941Z,101293.06
2022-10-12T10:46:06.673Z,101291.94
2022-10-12T10:48:51.094Z,101287.25
2022-10-12T10:51:19.301Z,101287.53
2022-10-12T10:53:49.283Z,101287.03
2022-10-12T10:56:23.947Z,101283.53
2022-10-12T10:58:56.004Z,101287.50
2022-10-12T11:01:29.044Z,101286.56
2022-10-12T11:04:02.559Z,101285.25
2022-10-12T11:06:39.194Z,101280.25
2022-10-12T11:09:14.591Z,101272.84
2022-10-12T11:11:45.826Z,101276.03
2022-10-12T11:14:17.736Z,101275.13
2022-10-12T11:16:50.067Z,101272.84
2022-10-12T11:19:31.582Z,101274.00
2022-10-12T11:22:04.621Z,101279.88
2022-10-12T11:24:39.897Z,101281.47
2022-10-12T11:27:16.339Z,101269.22
2022-10-12T11:29:46.628Z,101270.06
2022-10-12T11:32:27.471Z,101276.41
2022-10-12T11:34:59.499Z,101280.84
2022-10-12T11:37:38.623Z,101272.66
2022-10-12T11:40:11.844Z,101281.63
2022-10-12T11:42:43.876Z,101267.34
2022-10-12T11:45:22.171Z,101265.88
2022-10-12T11:47:55.338Z,101270.69
2022-10-12T11:50:31.690Z,101275.69
2022-10-12T11:53:02.639Z,101273.28
2022-10-12T11:55:52.303Z,101271.78
2022-10-12T11:58:42.289Z,101267.72
2022-10-12T12:01:48.964Z,101270.34
2022-10-12T12:04:41.096Z,101275.97
2022-10-12T12:07:43.883Z,101264.25
2022-10-12T12:10:53.468Z,101257.78
2022-10-12T12:13:27.323Z,101265.75
2022-10-12T12:16:34.719Z,101264.34
2022-10-12T12:19:29.580Z,101258.22
2022-10-12T12:22:24.395Z,101252.56
2022-10-12T12:24:55.687Z,101247.91
2022-10-12T12:27:29.862Z,101251.91
2022-10-12T12:30:01.273Z,101252.75
2022-10-12T12:32:44.371Z,101245.38
2022-10-12T12:35:28.377Z,101250.69
2022-10-12T12:38:27.772Z,101244.97
2022-10-12T12:41:13.246Z,101253.19
2022-10-12T12:44:04.084Z,101248.03
2022-10-12T12:47:39.798Z,101246.03
2022-10-12T12:50:02.190Z,101246.47
2022-10-12T12:52:33.730Z,101252.88
2022-10-12T12:55:41.983Z,101239.91
2022-10-12T12:58:38.868Z,101242.09
2022-10-12T13:01:29.487Z,101245.00
2022-10-12T13:04:12.802Z,101248.06
2022-10-12T13:07:12.291Z,101236.91
2022-10-12T13:09:53.544Z,101240.69
2022-10-12T13:12:46.092Z,101243.22
2022-10-12T13:15:41.688Z,101242.84
2022-10-12T13:18:47.182Z,101237.09
2022-10-12T13:21:20.205Z,101246.22
2022-10-12T13:23:52.349Z,101234.72
2022-10-12T13:26:25.176Z,101241.16
2022-10-12T13:28:55.349Z,101234.56
2022-10-12T13:31:29.542Z,101247.06
2022-10-12T13:34:04.958Z,101246.34
2022-10-12T13:36:36.796Z,101245.56
2022-10-12T13:39:16.938Z,101250.03
2022-10-12T13:41:46.810Z,101257.38
2022-10-12T13:44:23.392Z,101255.94
2022-10-12T13:46:54.996Z,101254.50
2022-10-12T13:49:25.027Z,101256.66
2022-10-12T13:51:55.105Z,101253.34
2022-10-12T13:54:28.246Z,101253.84
2022-10-12T13:57:00.314Z,101244.22
2022-10-12T13:59:32.101Z,101243.63
2022-10-12T14:02:02.530Z,101243.25
2022-10-12T14:04:32.946Z,101238.28
2022-10-12T14:07:04.152Z,101242.75
2022-10-12T14:09:42.799Z,101240.88
2022-10-12T14:12:12.009Z,101237.59
2022-10-12T14:14:41.996Z,101240.09
2022-10-12T14:17:16.130Z,101236.44
2022-10-12T14:19:46.866Z,101238.88
2022-10-12T14:22:21.714Z,101237.00
2022-10-12T14:24:52.246Z,101242.59
2022-10-12T14:27:26.927Z,101237.84
2022-10-12T14:29:58.562Z,101243.09
2022-10-12T14:32:41.046Z,101250.63
2022-10-12T14:35:28.197Z,101247.13
2022-10-12T14:37:57.279Z,101241.06
2022-10-12T14:40:40.147Z,101246.19
2022-10-12T14:43:24.311Z,101246.97
2022-10-12T14:45:53.325Z,101243.19
2022-10-12T14:48:25.952Z,101241.88
2022-10-12T14:50:54.222Z,101250.66
2022-10-12T14:53:22.773Z,101244.41
2022-10-12T14:55:54.574Z,101249.38
2022-10-12T14:58:22.978Z,101245.75
2022-10-12T15:00:51.173Z,101239.84
2022-10-12T15:03:20.390Z,101253.06
2022-10-12T15:05:48.675Z,101246.53
2022-10-12T15:08:16.768Z,101259.25
2022-10-12T15:10:45.031Z,101249.22
2022-10-12T15:13:15.393Z,101247.69
2022-10-12T15:15:45.428Z,101249.09
2022-10-12T15:18:13.494Z,101251.16
2022-10-12T15:20:46.752Z,101255.94
2022-10-12T15:23:17.228Z,101249.75
2022-10-12T15:25:51.394Z,101255.34
2022-10-12T15:28:21.752Z,101261.38
2022-10-12T15:33:41.930Z,101261.38
2022-10-12T15:36:10.897Z,101261.06
2022-10-12T15:38:39.130Z,101267.56
2022-10-12T15:41:07.450Z,101265.66
2022-10-12T15:43:39.697Z,101269.16
2022-10-12T15:46:12.089Z,101269.63
2022-10-12T15:48:40.371Z,101273.44
2022-10-12T15:51:14.821Z,101278.19
2022-10-12T15:53:44.978Z,101273.63
2022-10-12T15:56:15.570Z,101277.75
2022-10-12T15:58:45.769Z,101282.19
2022-10-12T16:01:15.220Z,101277.41
2022-10-12T16:03:44.503Z,101275.16
2022-10-12T16:06:12.621Z,101280.75
2022-10-12T16:08:41.000Z,101276.47
2022-10-12T16:11:12.162Z,101278.19
2022-10-12T16:13:46.807Z,101291.72
2022-10-12T16:16:19.515Z,101280.56
2022-10-12T16:18:47.627Z,101291.38
2022-10-12T16:21:15.986Z,101285.34
2022-10-12T16:23:44.062Z,101296.91
2022-10-12T16:26:14.956Z,101293.47
2022-10-12T16:28:43.522Z,101292.81
2022-10-12T16:31:15.248Z,101298.69
2022-10-12T16:33:45.306Z,101291.38
2022-10-12T16:36:15.499Z,101296.91
2022-10-12T16:38:44.624Z,101294.38
2022-10-12T16:41:14.285Z,101294.50
2022-10-12T16:43:42.787Z,101296.75
2022-10-12T16:46:11.694Z,101300.88
2022-10-12T16:48:39.948Z,101295.66
2022-10-12T16:51:10.758Z,101292.16
2022-10-12T16:53:39.190Z,101287.66
2022-10-12T16:56:07.946Z,101292.75
2022-10-12T16:58:36.050Z,101292.59
2022-10-12T17:01:11.086Z,101289.88
2022-10-12T17:03:39.469Z,101285.09
2022-10-12T17:06:09.777Z,101295.63
2022-10-12T17:08:39.399Z,101290.06
2022-10-12T17:11:09.326Z,101291.47
2022-10-12T17:13:38.257Z,101296.88
2022-10-12T17:16:27.583Z,101302.28
2022-10-12T17:18:59.370Z,101300.84
2022-10-12T17:21:29.916Z,101299.38
2022-10-12T17:23:58.504Z,101307.50
2022-10-12T17:26:26.768Z,101293.84
2022-10-12T17:28:54.865Z,101300.66
2022-10-12T17:31:23.073Z,101299.69
2022-10-12T17:33:51.363Z,101303.53
2022-10-12T17:36:20.338Z,101300.97
2022-10-12T17:38:51.845Z,101307.00
2022-10-12T17:41:19.998Z,101307.00
2022-10-12T17:43:48.383Z,101305.53
2022-10-12T17:46:21.507Z,101304.25
2022-10-12T17:48:50.591Z,101304.84
2022-10-12T17:51:19.555Z,101296.13
2022-10-12T17:53:47.689Z,101300.59
2022-10-12T17:56:17.483Z,101303.25
2022-10-12T17:58:45.610Z,101301.84
2022-10-12T18:01:15.808Z,101316.13
2022-10-12T18:03:47.318Z,101313.47
2022-10-12T18:06:18.182Z,101316.44
2022-10-12T18:08:46.755Z,101317.84
2022-10-12T18:11:17.167Z,101317.22
2022-10-12T18:13:48.453Z,101319.91
2022-10-12T18:16:18.535Z,101318.50
2022-10-12T18:18:50.657Z,101322.81
2022-10-12T18:21:21.103Z,101323.22
2022-10-12T18:23:49.345Z,101319.59
2022-10-12T18:26:22.901Z,101323.59
2022-10-12T18:28:53.173Z,101322.13
2022-10-12T18:31:23.445Z,101314.44
2022-10-12T18:33:52.344Z,101316.38
2022-10-12T18:36:21.879Z,101319.06
2022-10-12T18:38:50.262Z,101314.56
2022-10-12T18:41:23.385Z,101313.63
2022-10-12T18:43:55.454Z,101317.31
2022-10-12T18:46:23.747Z,101316.38
2022-10-12T18:48:51.848Z,101315.06
2022-10-12T18:51:22.557Z,101315.19
2022-10-12T18:53:51.255Z,101319.28
2022-10-12T18:56:21.401Z,101312.63
2022-10-12T18:58:49.612Z,101314.41
2022-10-12T19:01:20.188Z,101309.78
2022-10-12T19:03:49.387Z,101310.25
2022-10-12T19:06:21.941Z,101318.19
2022-10-12T19:08:50.892Z,101306.09
2022-10-12T19:11:22.430Z,101313.25
2022-10-12T19:13:53.714Z,101318.28
2022-10-12T19:16:22.463Z,101319.06
2022-10-12T19:18:51.061Z,101314.59
2022-10-12T19:21:19.966Z,101318.88
2022-10-12T19:23:48.142Z,101305.78
2022-10-12T19:26:18.235Z,101306.69
2022-10-12T19:28:48.141Z,101310.59
2022-10-12T19:31:19.109Z,101316.50
2022-10-12T19:33:47.795Z,101303.44
2022-10-12T19:36:18.971Z,101310.28
2022-10-12T19:38:47.094Z,101295.09
2022-10-12T19:41:15.804Z,101304.41
2022-10-12T19:43:44.267Z,101297.69
2022-10-12T19:46:14.637Z,101297.13
2022-10-12T19:48:43.314Z,101296.03
2022-10-12T19:51:14.049Z,101296.63
2022-10-12T19:53:42.869Z,101303.56
2022-10-12T19:56:14.059Z,101307.91
2022-10-12T19:58:43.001Z,101304.78
2022-10-12T20:01:15.112Z,101303.19
2022-10-12T20:03:47.792Z,101305.50
2022-10-12T20:06:16.634Z,101302.72
2022-10-12T20:08:45.945Z,101306.41
2022-10-12T20:11:18.466Z,101306.03
2022-10-12T20:13:48.565Z,101305.28
2022-10-12T20:16:19.552Z,101300.63
2022-10-12T20:18:48.324Z,101301.63
2022-10-12T20:21:19.741Z,101299.25
2022-10-12T20:23:47.950Z,101294.00
2022-10-12T20:26:17.918Z,101302.09
2022-10-12T20:28:46.071Z,101299.75
2022-10-12T20:31:14.299Z,101293.69
2022-10-12T20:33:44.352Z,101287.78
2022-10-12T20:36:23.580Z,101295.59
2022-10-12T20:38:52.939Z,101287.25
2022-10-12T20:41:22.116Z,101286.47
2022-10-12T20:43:50.314Z,101283.59
2022-10-12T20:46:20.102Z,101288.81
2022-10-12T20:48:49.580Z,101290.94
2022-10-12T20:51:21.729Z,101290.16
2022-10-12T20:53:50.911Z,101296.34
2022-10-12T20:56:20.346Z,101296.09
2022-10-12T20:58:48.831Z,101288.44
2022-10-12T21:01:18.618Z,101296.94
2022-10-12T21:03:46.873Z,101292.19
2022-10-12T21:06:18.983Z,101292.53
2022-10-12T21:08:51.292Z,101297.56
2022-10-12T21:11:19.485Z,101301.56
2022-10-12T21:13:47.956Z,101302.19
2022-10-12T21:16:17.292Z,101304.91
2022-10-12T21:18:45.752Z,101304.91
2022-10-12T21:21:17.245Z,101302.34
2022-10-12T21:23:47.152Z,101301.34
2022-10-12T21:26:17.433Z,101297.75
2022-10-12T21:28:46.523Z,101305.22
2022-10-12T21:31:15.559Z,101297.94
2022-10-12T21:33:44.021Z,101298.91
2022-10-12T21:36:15.055Z,101301.31
2022-10-12T21:38:45.003Z,101298.25
2022-10-12T21:41:15.291Z,101302.81
2022-10-12T21:43:44.205Z,101290.31
2022-10-12T21:46:14.463Z,101299.78
2022-10-12T21:48:42.946Z,101292.72
2022-10-12T21:51:11.687Z,101292.03
2022-10-12T21:53:40.510Z,101283.84
2022-10-12T21:56:11.477Z,101290.47
2022-10-12T21:58:39.607Z,101291.31
2022-10-12T22:01:09.318Z,101284.56
2022-10-12T22:03:37.639Z,101285.69
2022-10-12T22:06:06.266Z,101283.31
2022-10-12T22:08:35.083Z,101277.34
2022-10-12T22:11:07.657Z,101277.78
2022-10-12T22:13:37.615Z,101277.34
2022-10-12T22:16:08.192Z,101279.91
2022-10-12T22:18:36.793Z,101282.06
2022-10-12T22:21:05.948Z,101272.06
2022-10-12T22:23:34.296Z,101269.50
2022-10-12T22:26:03.407Z,101268.91
2022-10-12T22:28:31.684Z,101268.59
2022-10-12T22:31:01.210Z,101274.75
2022-10-12T22:33:29.361Z,101273.16
2022-10-12T22:35:59.335Z,101274.72
2022-10-12T22:38:27.917Z,101277.16
2022-10-12T22:40:57.254Z,101273.16
2022-10-12T22:43:26.137Z,101275.38
2022-10-12T22:45:54.468Z,101268.13
2022-10-12T22:48:25.239Z,101270.97
2022-10-12T22:50:54.295Z,101266.69
2022-10-12T22:53:24.000Z,101265.75
2022-10-12T22:55:59.034Z,101266.38
2022-10-12T22:58:27.566Z,101267.03
2022-10-12T23:01:02.681Z,101268.75
2022-10-12T23:03:32.994Z,101275.84
2022-10-12T23:06:01.265Z,101276.78
2022-10-12T23:08:30.161Z,101272.16
2022-10-12T23:11:04.957Z,101270.25
2022-10-12T23:13:33.485Z,101272.00
2022-10-12T23:16:05.579Z,101272.22
2022-10-12T23:18:36.540Z,101266.59
2022-10-12T23:21:06.105Z,101266.22
2022-10-12T23:23:34.897Z,101269.75
2022-10-12T23:26:04.575Z,101264.47
2022-10-12T23:28:32.893Z,101265.97
2022-10-12T23:31:03.280Z,101266.16
2022-10-12T23:33:31.460Z,101272.28
2022-10-12T23:36:03.346Z,101265.72
2022-10-12T23:38:32.748Z,101260.63
2022-10-12T23:41:00.823Z,101263.38
2022-10-12T23:43:29.554Z,101269.59
2022-10-12T23:45:57.930Z,101274.16
2022-10-12T23:48:26.634Z,101272.47
2022-10-12T23:50:54.719Z,101258.50
2022-10-12T23:53:24.962Z,101271.38
2022-10-12T23:55:54.870Z,101263.38
2022-10-12T23:58:23.359Z,101263.53
